Flight Track Log - Related Links

Times and Time Zones

All times are in EST time to prevent confusion due to time zone crossing. See the N865JM flight status page for this flight to view local times or setup timezone preferences in your user account.

Time Position Orientation Groundspeed Altitude Reporting Facility
EST Latitude Longitude Course Direction KTS MPH feet Rate Location/Type
Fri 02:46:48 PM 33.6639 -78.9350 231° Southwest 272 313 10,400  Level Jacksonville Center
Fri 02:47:48 PM 33.6097 -79.0122 230° Southwest 291 335 12,400 2,000 Climbing Jacksonville Center
Fri 02:48:48 PM 33.5478 -79.0997 230° Southwest 323 372 14,400 2,000 Climbing Jacksonville Center
Fri 02:49:00 PM 33.5095 -79.1358 231° Southwest  Level FlightAware Approximate
Fri 02:49:48 PM 33.4858 -79.1919 231° Southwest 347 399 16,400  Level Jacksonville Center
Fri 02:50:00 PM 33.4526 -79.2212 231° Southwest  Level FlightAware Approximate
Fri 02:50:48 PM 33.4178 -79.2919 231° Southwest 372 428 18,500  Level Jacksonville Center
Fri 02:51:00 PM 33.3952 -79.3060 231° Southwest  Level FlightAware Approximate
Fri 02:51:48 PM 33.3475 -79.3917 230° Southwest 385 443 20,600  Level Jacksonville Center
Fri 02:52:48 PM 33.2772 -79.4914 230° Southwest 391 450 22,600 1,900 Climbing Jacksonville Center
Fri 02:53:48 PM 33.2069 -79.5933 231° Southwest 391 450 24,400 1,650 Climbing Jacksonville Center
Fri 02:54:48 PM 33.1364 -79.6950 230° Southwest 396 456 25,900 1,400 Climbing Jacksonville Center
Fri 02:55:48 PM 33.0639 -79.7944 229° Southwest 402 463 27,200 1,350 Climbing Jacksonville Center
Fri 02:56:48 PM 32.9911 -79.8958 229° Southwest 402 463 28,600 1,350 Climbing Jacksonville Center
Fri 02:57:48 PM 32.9117 -79.9853 223° Southwest 402 463 29,900 1,200 Climbing Jacksonville Center
Fri 02:58:48 PM 32.8219 -80.0697 218° Southwest 402 463 31,000 900 Climbing Jacksonville Center
Fri 02:59:48 PM 32.7319 -80.1539 218° Southwest 413 475 31,700 600 Climbing Jacksonville Center
Fri 03:00:48 PM 32.6397 -80.2431 219° Southwest 421 484 32,200 500 Climbing Jacksonville Center
Fri 03:01:48 PM 32.5456 -80.3319 219° Southwest 433 498 32,700 450 Climbing Jacksonville Center
Fri 03:02:48 PM 32.4514 -80.4208 219° Southwest 433 498 33,100 500 Climbing Jacksonville Center
Fri 03:03:48 PM 32.3550 -80.5072 217° Southwest 433 498 33,700 450 Climbing Jacksonville Center
Fri 03:04:48 PM 32.2625 -80.5956 219° Southwest 433 498 34,000 150 Climbing Jacksonville Center
Fri 03:05:48 PM 32.1681 -80.6814 218° Southwest 433 498 34,000  Level Jacksonville Center
Fri 03:06:48 PM 32.0778 -80.7644 218° Southwest 427 491 34,000  Level Jacksonville Center
Fri 03:07:48 PM 31.9708 -80.8622 218° Southwest 434 499 34,000  Level Jacksonville Center
Fri 03:08:48 PM 31.8781 -80.9500 219° Southwest 434 499 34,000  Level Jacksonville Center
Fri 03:09:48 PM 31.7917 -81.0275 217° Southwest 434 499 34,000  Level Jacksonville Center
Fri 03:10:48 PM 31.6864 -81.1225 218° Southwest 439 505 34,000  Level Jacksonville Center
Fri 03:11:48 PM 31.6000 -81.2022 218° Southwest 444 511 34,000  Level Jacksonville Center
Fri 03:12:48 PM 31.4967 -81.2967 218° Southwest 444 511 34,000  Level Jacksonville Center
Fri 03:13:48 PM 31.4017 -81.3833 218° Southwest 444 511 34,000  Level Jacksonville Center
Fri 03:14:48 PM 31.3128 -81.4628 217° Southwest 444 511 34,000  Level Jacksonville Center
Fri 03:15:48 PM 31.2178 -81.5492 218° Southwest 444 511 34,000  Level Jacksonville Center
Fri 03:16:48 PM 31.1225 -81.6356 218° Southwest 444 511 34,000 150 Level Jacksonville Center
Fri 03:17:48 PM 31.0253 -81.7167 216° Southwest 444 511 34,300 400 Climbing Jacksonville Center
Fri 03:18:48 PM 30.9150 -81.7739 204° Southwest 439 505 34,800 500 Climbing Jacksonville Center
Fri 03:19:48 PM 30.8028 -81.8283 203° Southwest 434 499 35,300 500 Climbing Jacksonville Center
Fri 03:20:48 PM 30.6947 -81.8828 203° Southwest 434 499 35,800 300 Climbing Jacksonville Center
Fri 03:21:48 PM 30.5867 -81.9369 203° Southwest 434 499 35,900 50 Climbing Jacksonville Center
Fri 03:22:48 PM 30.4783 -81.9864 201° Southwest 429 494 35,900 50 Level Jacksonville Center
Fri 03:23:48 PM 30.3681 -82.0378 202° Southwest 429 494 36,000 50 Climbing Jacksonville Center
Fri 03:24:48 PM 30.2597 -82.0917 203° Southwest 429 494 36,000  Level Jacksonville Center
Fri 03:25:48 PM 30.1411 -82.1167 190° South 429 494 36,000 -50 Level Jacksonville Center
Fri 03:26:48 PM 30.0053 -82.0986 173° South 429 494 35,900 -300 Descending Jacksonville Center
Fri 03:27:48 PM 29.8819 -82.0758 171° South 441 507 35,400 -450 Descending Jacksonville Center
Fri 03:28:48 PM 29.7606 -82.0481 169° South 446 513 35,000 -200 Descending Jacksonville Center
Fri 03:29:48 PM 29.6372 -82.0253 171° South 446 513 35,000  Level Jacksonville Center
Fri 03:30:48 PM 29.5181 -82.0025 171° South 446 513 35,000  Level Jacksonville Center
Fri 03:31:48 PM 29.3969 -81.9772 170° South 446 513 35,000  Level Jacksonville Center
Fri 03:32:48 PM 29.2736 -81.9522 170° South 446 513 35,000  Level Jacksonville Center
Fri 03:33:48 PM 29.1628 -81.9247 168° South 451 519 35,000 -409 Level Jacksonville Center
Fri 03:35:44 PM 28.9181 -81.8758 170° South 447 514 33,800 -1,057 Descending Miami Center
Fri 03:36:44 PM 28.8142 -81.8592 172° South 436 502 31,900 -2,050 Descending Miami Center
Fri 03:37:44 PM 28.6983 -81.8375 171° South 424 488 29,700 -2,200 Descending Miami Center
Fri 03:38:44 PM 28.5822 -81.8133 170° South 424 488 27,500 -1,350 Descending Miami Center
Fri 03:39:44 PM 28.4664 -81.7844 168° South 429 494 27,000 -600 Descending Miami Center
Fri 03:40:44 PM 28.3364 -81.7458 165° South 429 494 26,300 -1,000 Descending Miami Center
Fri 03:41:44 PM 28.2269 -81.7153 166° South 426 490 25,000 -1,300 Descending Miami Center
Fri 03:42:44 PM 28.1153 -81.6822 165° South 420 483 23,700 -1,000 Descending Miami Center
Fri 03:43:44 PM 28.0069 -81.6800 179° South 406 467 23,000 -350 Descending Miami Center
Fri 03:44:44 PM 27.8958 -81.6964 187° South 393 452 23,000 -50 Level Miami Center
Fri 03:45:44 PM 27.8025 -81.6758 169° South 393 452 22,900 -1,000 Descending Miami Center
Fri 03:46:44 PM 27.6886 -81.6478 168° South 387 445 21,000 -1,850 Descending Miami Center
Fri 03:47:44 PM 27.5831 -81.6222 168° South 387 445 19,200 -1,650 Descending Miami Center
Fri 03:48:44 PM 27.4900 -81.5972 167° South 386 444 17,700 -1,650 Descending Miami Center
Fri 03:49:44 PM 27.3928 -81.5744 168° South 386 444 15,900 -1,700 Descending Miami Center
Fri 03:50:44 PM 27.2953 -81.5519 168° South 369 425 14,300 -1,700 Descending Miami Center
Fri 03:51:44 PM 27.2000 -81.5292 168° South 359 413 12,500 -1,600 Descending Miami Center
Fri 03:52:44 PM 27.1067 -81.5069 168° South 353 406 11,100 -1,250 Descending Miami Center
Fri 03:53:44 PM 27.0200 -81.4825 166° South 342 394 10,000 -650 Descending Miami Center
Fri 03:54:44 PM 26.9394 -81.4489 160° South 313 360 9,800 -1,050 Descending Miami Center
Fri 03:55:44 PM 26.8719 -81.4114 154° Southeast 288 331 7,900 -1,850 Descending Miami Center
Fri 03:56:44 PM 26.8036 -81.3856 161° South 272 313 6,100 -1,450 Descending Miami Center
Fri 03:57:44 PM 26.7347 -81.3922 185° South 253 291 5,000 -550 Descending Miami Center
Fri 03:58:44 PM 26.6675 -81.3989 185° South 253 291 5,000  Level Miami Center
Fri 03:59:44 PM 26.6217 -81.4644 232° Southwest 234 269 5,000  Level Miami Center
Fri 04:00:44 PM 26.5800 -81.5278 234° Southwest 249 287 5,000  Level Miami Center
Fri 04:02:00 PM 26.5515 -81.6758 197° South  Level Estimated
Fri 04:09:00 PM 26.5333 -81.7500 318° Northwest  Level FlightAware Approximate
Fri 04:10:00 PM 26.5362 -81.7552 318° Northwest  Level Estimated
Fri 04:11:00 PM 26.5333 -81.7500 318° Northwest  Level FlightAware Approximate
Fri 04:12:00 PM 26.5362 -81.7552 318° Northwest  Level Estimated
Fri 04:13:00 PM 26.5333 -81.7500 318° Northwest  Level FlightAware Approximate
Fri 04:14:00 PM 26.5362 -81.7552 318° Northwest  Level Estimated
Fri 04:15:00 PM 26.5333 -81.7500 318° Northwest  Level FlightAware Approximate
Fri 04:16:00 PM 26.5362 -81.7552 318° Northwest  Level Estimated
Fri 04:17:00 PM 26.5333 -81.7500 318° Northwest  Level FlightAware Approximate
Fri 04:18:00 PM 26.5362 -81.7552 318° Northwest  Level Estimated
Fri 04:19:00 PM 26.5333 -81.7500 318° Northwest  Level FlightAware Approximate
Fri 04:20:00 PM 26.5362 -81.7552 318° Northwest  Level Estimated

Login

Don't have an account? Register now (free) for customized features, flight alerts, and more!